Airfield :
LOGIN :

Register | Disclaimer

   EN    FR    IT 

 










Legend :    VFR   Marginal VFR   IFR   Intensive IFR   Very Intensive IFR
Visi :
Ceiling :
>= 8 km
>= 3000ft
5 to 8 km
1000 to 3000 ft
1500m to 5 km
500 to 1000 ft
800 to 1500m
200 to 500 ft
< 800m
< 200 ft
Symbols :   Thunderstorms  Fog  Heavy snow  Heavy precipitations  Wind > 20 kt
SIGMETs :     Misc.  Thunderstorms  Icing  Turbulence  Mountain Waves  Volcanic Ashes






- Airport Elevation : 580 ft


LFOA - Avord

CURRENT METAR :
  • 060630Z AUTO 24007KT 0350 0300 R24/0375N FG VV/// 00/00 Q1021 TEMPO 1200 BR

EXPIRED METARs :
  • 060600Z AUTO 23006KT 0300 R24/0325N FG VV/// 00/M00 Q1021 NOSIG
  • 060530Z AUTO 26002KT 0350 R24/0450N FZFG VV/// M01/M01 Q1021
  • 060500Z AUTO 16002KT 4600 BR BKN002 OVC006 M01/M02 Q1021
  • 060430Z AUTO 00000KT 3900 BR FEW006 M02/M02 Q1021
  • 060400Z AUTO 00000KT 4300 BR NSC M02/M03 Q1021

TAF AMD TAF LFOA
Valid from the 06 at 06:00 until the 07 at 03:00 UTC


060625Z 0606/0703 24005KT 0300 FG VV///
PROB40
TEMPO 0607/0611 1200 BR OVC002
BECMG 0611/0613 3000 BR OVC003
TEMPO 0614/0624 5000 -RA BKN006 BKN015
PROB40
TEMPO 0700/0703 24010G20KT 1200 DZRA OVC003



MET'MAP, your aeronautical weather chart ! - Copyright ORBIFLY December 2007 - Disclaimer

ORBIFLY MET'MAP TEAM :

Programming & Development : Alexandra Zaïnal
Concept & original design : Baudouin d'Aumeries
Assistance for programming : Marc-Olivier Méhu
Technical & hardware support : Manuel Goepfert

Contact : metmap@orbifly.com




SOURCES & CREDITS :

   NOAA